Time;durP1;ratioP1;P1;durP2;ratioP2;P2;SDS_P1;SDS_P2;PMS_P1;PMS_P2;Temp;Humidity;BMP_temperature;BMP_pressure;BME280_temperature;BME280_humidity;BME280_pressure;Samples;Min_cycle;Max_cycle;Signal;HPM_P1;HPM_P2
2022/10/31 01:39:28;;;;;;;3.43;0.40;;;;;;;;;;1802275;77;23453;-50
2022/10/31 01:41:55;;;;;;;1.95;0.33;;;;;;;;;;1776131;79;21045;-48
2022/10/31 01:44:26;;;;;;;1.98;0.37;;;;;;;;;;1777669;79;21926;-48
2022/10/31 01:47:08;;;;;;;2.27;0.30;;;;;;;;;;1773726;78;21569;-49
2022/10/31 01:49:41;;;;;;;2.77;0.40;;;;;;;;;;1762622;79;21120;-48
2022/10/31 01:52:11;;;;;;;1.52;0.30;;;;;;;;;;1778060;79;21519;-50
2022/10/31 01:54:40;;;;;;;1.07;0.30;;;;;;;;;;1777477;79;21064;-49
2022/10/31 01:57:08;;;;;;;1.25;0.30;;;;;;;;;;1779611;79;21387;-49
2022/10/31 01:59:36;;;;;;;1.42;0.30;;;;;;;;;;1780788;78;20990;-48
2022/10/31 02:02:02;;;;;;;2.33;0.40;;;;;;;;;;1780226;78;20976;-48
2022/10/31 02:04:29;;;;;;;1.85;0.40;;;;;;;;;;1778948;78;20968;-49
2022/10/31 02:06:59;;;;;;;2.30;0.50;;;;;;;;;;1783305;78;21716;-49
2022/10/31 02:09:25;;;;;;;1.65;0.30;;;;;;;;;;1775426;78;21757;-49
2022/10/31 02:11:52;;;;;;;1.60;0.40;;;;;;;;;;1782720;78;21088;-50
2022/10/31 02:14:18;;;;;;;1.15;0.40;;;;;;;;;;1754900;79;20986;-48
2022/10/31 02:16:45;;;;;;;2.15;0.40;;;;;;;;;;1760185;78;21449;-51
2022/10/31 02:19:12;;;;;;;0.55;0.20;;;;;;;;;;1778279;78;21017;-48
2022/10/31 02:21:51;;;;;;;2.08;0.30;;;;;;;;;;1782269;78;22973;-50
2022/10/31 02:24:45;;;;;;;2.80;0.25;;;;;;;;;;1778486;78;21461;-50
2022/10/31 02:27:39;;;;;;;1.57;0.30;;;;;;;;;;1756061;79;20983;-50
2022/10/31 02:30:30;;;;;;;3.20;0.30;;;;;;;;;;1784072;78;21795;-49
2022/10/31 02:33:07;;;;;;;1.30;0.20;;;;;;;;;;1757609;78;20982;-50
2022/10/31 02:35:46;;;;;;;1.70;0.30;;;;;;;;;;1779274;78;21755;-50
2022/10/31 02:38:16;;;;;;;1.77;0.30;;;;;;;;;;1781005;78;20976;-50
2022/10/31 02:41:04;;;;;;;0.93;0.53;;;;;;;;;;1749767;78;21094;-50
2022/10/31 02:43:45;;;;;;;2.05;0.62;;;;;;;;;;1771686;78;21114;-50
2022/10/31 02:46:31;;;;;;;2.30;0.20;;;;;;;;;;1778969;78;21119;-49
2022/10/31 02:49:01;;;;;;;1.52;0.30;;;;;;;;;;1778816;78;21842;-49
2022/10/31 02:51:27;;;;;;;1.62;0.30;;;;;;;;;;1776078;78;21224;-49
2022/10/31 02:53:53;;;;;;;2.65;0.30;;;;;;;;;;1779379;80;21058;-48
2022/10/31 02:56:20;;;;;;;1.05;0.30;;;;;;;;;;1776962;78;21051;-48
2022/10/31 02:58:55;;;;;;;0.75;0.20;;;;;;;;;;1779065;78;21058;-49
2022/10/31 03:01:28;;;;;;;2.27;0.28;;;;;;;;;;1777348;78;21801;-49
2022/10/31 03:04:04;;;;;;;3.77;0.30;;;;;;;;;;1748939;80;21504;-49
2022/10/31 03:06:35;;;;;;;2.58;0.40;;;;;;;;;;1779141;78;21027;-48
2022/10/31 03:09:14;;;;;;;1.05;0.30;;;;;;;;;;1771715;78;21047;-49
2022/10/31 03:12:00;;;;;;;1.22;0.30;;;;;;;;;;1763820;78;21069;-49
2022/10/31 03:14:31;;;;;;;1.17;0.25;;;;;;;;;;1664334;84;21965;-49
2022/10/31 03:16:59;;;;;;;3.27;0.30;;;;;;;;;;1716892;80;21230;-49
2022/10/31 03:19:28;;;;;;;2.92;0.40;;;;;;;;;;1772926;78;21114;-49
2022/10/31 03:22:06;;;;;;;2.05;0.40;;;;;;;;;;1779757;80;22332;-49
2022/10/31 03:24:36;;;;;;;1.57;0.28;;;;;;;;;;1772882;78;21579;-50
2022/10/31 03:27:02;;;;;;;2.33;0.30;;;;;;;;;;1772930;78;21920;-49
2022/10/31 03:29:31;;;;;;;1.45;0.40;;;;;;;;;;1772293;78;21048;-49
2022/10/31 03:32:00;;;;;;;2.70;0.50;;;;;;;;;;1768845;78;21021;-49
2022/10/31 03:34:27;;;;;;;0.88;0.30;;;;;;;;;;1776670;78;21071;-49
2022/10/31 03:36:55;;;;;;;2.52;0.40;;;;;;;;;;1780869;78;21536;-49
2022/10/31 03:39:21;;;;;;;1.80;0.30;;;;;;;;;;1771564;79;22601;-50
2022/10/31 03:41:51;;;;;;;2.05;0.55;;;;;;;;;;1769395;79;21564;-48
2022/10/31 03:44:19;;;;;;;2.22;0.30;;;;;;;;;;1768644;79;21590;-48
2022/10/31 03:46:48;;;;;;;2.42;0.30;;;;;;;;;;1773213;79;21039;-48
2022/10/31 03:49:14;;;;;;;0.93;0.30;;;;;;;;;;1765878;79;21059;-49
2022/10/31 03:52:02;;;;;;;1.25;0.35;;;;;;;;;;1765106;79;22548;-48
2022/10/31 03:54:38;;;;;;;1.20;0.30;;;;;;;;;;1767717;79;21078;-49
2022/10/31 03:57:31;;;;;;;2.05;0.40;;;;;;;;;;1761573;79;21064;-48
2022/10/31 04:00:01;;;;;;;3.33;0.30;;;;;;;;;;1769410;79;21063;-49
2022/10/31 04:02:30;;;;;;;3.22;0.40;;;;;;;;;;1762691;79;21037;-49
2022/10/31 04:04:56;;;;;;;1.92;0.23;;;;;;;;;;1768118;79;21843;-49
2022/10/31 04:07:23;;;;;;;4.03;0.30;;;;;;;;;;1770746;79;21445;-49
2022/10/31 04:09:50;;;;;;;1.85;0.20;;;;;;;;;;1767135;79;21102;-49
2022/10/31 04:12:19;;;;;;;1.20;0.45;;;;;;;;;;1764085;79;21042;-49
2022/10/31 04:15:03;;;;;;;2.30;0.28;;;;;;;;;;1767174;79;21588;-48
2022/10/31 04:17:31;;;;;;;1.12;0.20;;;;;;;;;;1765416;79;21829;-48
2022/10/31 04:20:00;;;;;;;1.95;0.30;;;;;;;;;;1767778;79;21541;-48
2022/10/31 04:22:27;;;;;;;0.50;0.20;;;;;;;;;;1767295;79;21280;-49
2022/10/31 04:24:53;;;;;;;0.40;0.20;;;;;;;;;;1770369;79;22372;-49
2022/10/31 04:27:20;;;;;;;1.55;0.20;;;;;;;;;;1765935;79;21154;-48
2022/10/31 04:29:46;;;;;;;0.37;0.10;;;;;;;;;;1768503;79;21794;-48
2022/10/31 04:32:13;;;;;;;2.37;0.10;;;;;;;;;;1772290;79;21070;-48
2022/10/31 04:34:41;;;;;;;0.50;0.10;;;;;;;;;;1770461;79;21052;-49
2022/10/31 04:37:07;;;;;;;3.30;0.17;;;;;;;;;;1763683;79;21058;-48
2022/10/31 04:39:34;;;;;;;1.85;0.20;;;;;;;;;;1752642;79;21104;-48
2022/10/31 04:42:18;;;;;;;1.65;0.20;;;;;;;;;;1747316;80;21839;-48
2022/10/31 04:44:44;;;;;;;0.40;0.13;;;;;;;;;;1737034;80;22170;-48
2022/10/31 04:47:10;;;;;;;0.30;0.15;;;;;;;;;;1738585;80;21268;-48
2022/10/31 04:49:36;;;;;;;0.62;0.20;;;;;;;;;;1741794;80;21793;-47
2022/10/31 04:52:03;;;;;;;1.75;0.10;;;;;;;;;;1749218;80;21156;-48
2022/10/31 04:54:30;;;;;;;0.50;0.20;;;;;;;;;;1742893;79;21828;-48
2022/10/31 04:57:07;;;;;;;0.60;0.20;;;;;;;;;;1711492;81;21137;-48
2022/10/31 04:59:33;;;;;;;0.93;0.20;;;;;;;;;;1739297;80;21075;-48
2022/10/31 05:01:59;;;;;;;1.07;0.10;;;;;;;;;;1739760;80;21056;-47
2022/10/31 05:04:27;;;;;;;3.27;0.20;;;;;;;;;;1744064;80;20988;-48
2022/10/31 05:06:53;;;;;;;0.85;0.23;;;;;;;;;;1745391;80;22682;-48
2022/10/31 05:09:19;;;;;;;1.52;0.20;;;;;;;;;;1727591;80;21294;-48
2022/10/31 05:11:46;;;;;;;0.72;0.20;;;;;;;;;;1750171;80;20992;-48
2022/10/31 05:14:14;;;;;;;0.30;0.20;;;;;;;;;;1741347;80;21024;-48
2022/10/31 05:16:45;;;;;;;1.27;0.20;;;;;;;;;;1714551;80;20961;-48
2022/10/31 05:19:16;;;;;;;0.95;0.20;;;;;;;;;;1726328;80;21872;-47
2022/10/31 05:22:02;;;;;;;2.12;0.20;;;;;;;;;;1750013;80;21024;-48
2022/10/31 05:24:29;;;;;;;0.40;0.20;;;;;;;;;;1743109;80;21371;-48
2022/10/31 05:26:55;;;;;;;1.47;0.25;;;;;;;;;;1731701;80;21499;-48
2022/10/31 05:29:22;;;;;;;1.10;0.33;;;;;;;;;;1746706;80;21463;-49
2022/10/31 05:31:49;;;;;;;0.60;0.20;;;;;;;;;;1741661;80;21850;-48
2022/10/31 05:34:20;;;;;;;1.87;0.30;;;;;;;;;;1743368;80;21306;-50
2022/10/31 05:37:09;;;;;;;0.30;0.10;;;;;;;;;;1741698;80;21038;-50
2022/10/31 05:39:33;;;;;;;1.62;0.20;;;;;;;;;;1750267;79;21055;-50
2022/10/31 05:42:01;;;;;;;1.85;0.20;;;;;;;;;;1771480;79;21164;-50
2022/10/31 05:44:27;;;;;;;0.55;0.20;;;;;;;;;;1769551;80;22446;-49
2022/10/31 05:46:58;;;;;;;3.47;0.30;;;;;;;;;;1764049;79;21558;-48
2022/10/31 05:49:26;;;;;;;0.30;0.20;;;;;;;;;;1762077;79;21636;-48
2022/10/31 05:52:02;;;;;;;0.40;0.15;;;;;;;;;;1765814;79;21039;-48
2022/10/31 05:54:30;;;;;;;0.50;0.13;;;;;;;;;;1765058;80;20996;-51
2022/10/31 05:57:03;;;;;;;2.00;0.10;;;;;;;;;;1740802;79;21223;-50
2022/10/31 05:59:30;;;;;;;0.72;0.13;;;;;;;;;;1772217;79;21041;-50
2022/10/31 06:01:57;;;;;;;3.22;0.20;;;;;;;;;;1762175;79;21117;-49
2022/10/31 06:04:25;;;;;;;0.80;0.17;;;;;;;;;;1766702;79;21140;-49
2022/10/31 06:06:52;;;;;;;0.98;0.10;;;;;;;;;;1765882;79;21151;-50
2022/10/31 06:09:18;;;;;;;0.42;0.10;;;;;;;;;;1737114;79;21322;-49
2022/10/31 06:11:45;;;;;;;1.87;0.10;;;;;;;;;;1769120;79;21087;-49
2022/10/31 06:14:25;;;;;;;0.37;0.10;;;;;;;;;;1769107;79;21075;-49
2022/10/31 06:16:54;;;;;;;0.30;0.10;;;;;;;;;;1767746;79;21676;-48
2022/10/31 06:19:28;;;;;;;0.78;0.20;;;;;;;;;;1753827;79;21087;-48
2022/10/31 06:21:56;;;;;;;0.47;0.20;;;;;;;;;;1771046;79;21063;-48
2022/10/31 06:24:23;;;;;;;0.35;0.20;;;;;;;;;;1767362;79;22040;-48
2022/10/31 06:26:54;;;;;;;0.30;0.10;;;;;;;;;;1772702;79;21102;-49
2022/10/31 06:29:20;;;;;;;0.42;0.13;;;;;;;;;;1767126;79;21062;-50
2022/10/31 06:32:01;;;;;;;1.65;0.20;;;;;;;;;;1769267;79;21108;-49
2022/10/31 06:34:28;;;;;;;1.65;0.10;;;;;;;;;;1768954;79;21819;-51
2022/10/31 06:36:54;;;;;;;0.50;0.20;;;;;;;;;;1768244;79;21079;-48
2022/10/31 06:39:23;;;;;;;1.87;0.30;;;;;;;;;;1761332;79;21591;-50
2022/10/31 06:41:49;;;;;;;0.47;0.20;;;;;;;;;;1735592;80;21591;-49
2022/10/31 06:44:16;;;;;;;1.35;0.20;;;;;;;;;;1740179;80;21039;-49
2022/10/31 06:46:56;;;;;;;2.05;0.13;;;;;;;;;;1739980;80;21833;-48
2022/10/31 06:49:42;;;;;;;0.68;0.15;;;;;;;;;;1741638;80;21510;-49
2022/10/31 06:52:11;;;;;;;0.40;0.10;;;;;;;;;;1742732;80;21044;-50
2022/10/31 06:54:37;;;;;;;4.95;0.85;;;;;;;;;;1739937;80;22259;-49
2022/10/31 06:57:03;;;;;;;0.37;0.20;;;;;;;;;;1739864;80;21071;-50
2022/10/31 06:59:31;;;;;;;2.90;0.20;;;;;;;;;;1739677;80;21741;-48
2022/10/31 07:01:59;;;;;;;1.35;0.20;;;;;;;;;;1741908;80;21024;-49
2022/10/31 07:04:25;;;;;;;0.50;0.20;;;;;;;;;;1740554;80;21035;-49
2022/10/31 07:06:52;;;;;;;1.57;0.20;;;;;;;;;;1738663;80;21050;-49
2022/10/31 07:09:19;;;;;;;0.55;0.10;;;;;;;;;;1742171;80;21031;-49
2022/10/31 07:11:46;;;;;;;0.53;0.13;;;;;;;;;;1741939;80;22918;-49
2022/10/31 07:14:12;;;;;;;1.32;0.30;;;;;;;;;;1742989;80;21462;-49
2022/10/31 07:16:39;;;;;;;0.15;0.10;;;;;;;;;;1744160;80;21516;-50
2022/10/31 07:19:05;;;;;;;0.47;0.10;;;;;;;;;;1746923;80;21114;-49
2022/10/31 07:21:33;;;;;;;0.65;0.10;;;;;;;;;;1739851;80;21110;-49
2022/10/31 07:23:59;;;;;;;0.40;0.10;;;;;;;;;;1717762;80;21981;-49
2022/10/31 07:26:42;;;;;;;0.47;0.10;;;;;;;;;;1720353;80;21337;-49
2022/10/31 07:29:08;;;;;;;0.40;0.20;;;;;;;;;;1740730;80;21039;-49
2022/10/31 07:31:35;;;;;;;0.33;0.10;;;;;;;;;;1744156;80;21489;-49
2022/10/31 07:34:03;;;;;;;2.20;0.20;;;;;;;;;;1740191;80;21086;-49
2022/10/31 07:36:50;;;;;;;0.60;0.10;;;;;;;;;;1743762;80;21921;-49
2022/10/31 07:39:18;;;;;;;1.40;0.20;;;;;;;;;;1739602;79;21330;-49
2022/10/31 07:41:45;;;;;;;0.40;0.10;;;;;;;;;;1770319;79;21107;-49
2022/10/31 07:44:11;;;;;;;0.20;0.17;;;;;;;;;;1765999;79;21563;-49
2022/10/31 07:46:55;;;;;;;1.55;0.10;;;;;;;;;;1764309;80;21091;-49
2022/10/31 07:49:39;;;;;;;0.78;0.10;;;;;;;;;;1770394;79;21824;-49
2022/10/31 07:52:10;;;;;;;1.00;0.10;;;;;;;;;;1765688;79;21650;-49
2022/10/31 07:54:38;;;;;;;0.57;0.10;;;;;;;;;;1724980;80;21033;-49
2022/10/31 07:57:06;;;;;;;0.33;0.20;;;;;;;;;;1770140;80;21045;-48
2022/10/31 07:59:33;;;;;;;1.67;0.10;;;;;;;;;;1767342;79;21107;-49
2022/10/31 08:01:59;;;;;;;0.50;0.10;;;;;;;;;;1767536;79;23314;-49
2022/10/31 08:04:33;;;;;;;0.42;0.10;;;;;;;;;;1771744;79;21367;-49
2022/10/31 08:07:18;;;;;;;1.75;0.20;;;;;;;;;;1769497;79;21535;-49
2022/10/31 08:09:46;;;;;;;0.72;0.10;;;;;;;;;;1766509;80;21498;-48
2022/10/31 08:12:14;;;;;;;0.10;0.10;;;;;;;;;;1767249;79;21059;-49
2022/10/31 08:14:40;;;;;;;4.15;0.20;;;;;;;;;;1741496;79;21813;-49
2022/10/31 08:17:07;;;;;;;0.20;0.10;;;;;;;;;;1772053;79;21457;-49
2022/10/31 08:19:35;;;;;;;0.28;0.10;;;;;;;;;;1771394;79;20984;-49
2022/10/31 08:22:02;;;;;;;0.50;0.20;;;;;;;;;;1763569;79;21835;-49
2022/10/31 08:24:30;;;;;;;0.30;0.10;;;;;;;;;;1773346;79;20984;-49
2022/10/31 08:26:57;;;;;;;0.75;0.30;;;;;;;;;;1741449;79;21895;-49
2022/10/31 08:29:23;;;;;;;1.32;0.25;;;;;;;;;;1771045;79;21112;-50
2022/10/31 08:31:50;;;;;;;0.35;0.20;;;;;;;;;;1772575;79;21000;-49
2022/10/31 08:34:33;;;;;;;0.55;0.20;;;;;;;;;;1709634;82;21106;-49
2022/10/31 08:37:19;;;;;;;0.25;0.10;;;;;;;;;;1747973;79;21110;-49
2022/10/31 08:39:48;;;;;;;0.50;0.10;;;;;;;;;;1773991;80;22009;-48
2022/10/31 08:42:14;;;;;;;0.45;0.10;;;;;;;;;;1778439;78;21048;-49
2022/10/31 08:44:40;;;;;;;1.57;0.03;;;;;;;;;;1773194;78;21024;-49
2022/10/31 08:47:06;;;;;;;0.10;0.00;;;;;;;;;;1770476;78;21645;-49
2022/10/31 08:49:33;;;;;;;0.20;0.10;;;;;;;;;;1779426;78;22166;-49
2022/10/31 08:52:00;;;;;;;0.20;0.03;;;;;;;;;;1774061;78;22737;-50
2022/10/31 08:54:28;;;;;;;0.40;0.10;;;;;;;;;;1773327;78;21106;-49
2022/10/31 08:56:56;;;;;;;0.25;0.10;;;;;;;;;;1775905;80;21494;-49
2022/10/31 08:59:40;;;;;;;0.20;0.10;;;;;;;;;;1772975;78;21697;-49
2022/10/31 09:02:14;;;;;;;0.10;0.00;;;;;;;;;;1773453;78;21110;-49
2022/10/31 09:04:41;;;;;;;0.30;0.17;;;;;;;;;;1772044;78;22515;-49
2022/10/31 09:07:07;;;;;;;0.72;0.10;;;;;;;;;;1772883;78;21054;-50
2022/10/31 09:09:35;;;;;;;0.00;0.00;;;;;;;;;;1779320;78;21038;-49
2022/10/31 09:12:01;;;;;;;0.20;0.10;;;;;;;;;;1775978;78;21049;-49
2022/10/31 09:14:47;;;;;;;0.13;0.10;;;;;;;;;;1775390;78;21070;-49
2022/10/31 09:17:18;;;;;;;0.28;0.08;;;;;;;;;;1776194;78;22503;-49
2022/10/31 09:19:49;;;;;;;2.35;0.10;;;;;;;;;;1771364;78;21099;-49
2022/10/31 09:22:17;;;;;;;2.62;0.00;;;;;;;;;;1777081;78;21297;-48
2022/10/31 09:24:44;;;;;;;2.05;0.50;;;;;;;;;;1779999;78;21497;-49
2022/10/31 09:27:11;;;;;;;0.55;0.20;;;;;;;;;;1773729;78;22305;-49
2022/10/31 09:29:39;;;;;;;0.45;0.10;;;;;;;;;;1777077;78;21898;-49
2022/10/31 09:32:09;;;;;;;0.13;0.10;;;;;;;;;;1776249;78;21019;-49
2022/10/31 09:34:38;;;;;;;0.53;0.10;;;;;;;;;;1774586;78;21572;-49
2022/10/31 09:37:08;;;;;;;1.77;0.10;;;;;;;;;;1772011;78;21036;-49
2022/10/31 09:39:35;;;;;;;0.20;0.10;;;;;;;;;;1772453;78;21091;-49
2022/10/31 09:42:30;;;;;;;1.45;0.10;;;;;;;;;;1777408;78;21837;-49
2022/10/31 09:45:04;;;;;;;1.02;0.10;;;;;;;;;;1777771;78;21031;-47
2022/10/31 09:48:03;;;;;;;1.02;0.10;;;;;;;;;;1778525;78;21038;-50
2022/10/31 09:50:59;;;;;;;0.20;0.10;;;;;;;;;;1772283;78;21066;-48
2022/10/31 09:53:56;;;;;;;1.27;0.20;;;;;;;;;;1771199;80;21216;-49
2022/10/31 09:56:23;;;;;;;0.20;0.10;;;;;;;;;;1773672;78;21889;-49
2022/10/31 09:58:55;;;;;;;1.27;0.28;;;;;;;;;;1770840;78;21118;-48
2022/10/31 10:01:35;;;;;;;0.30;0.10;;;;;;;;;;1775303;78;21087;-48
2022/10/31 10:04:22;;;;;;;0.62;0.10;;;;;;;;;;1750969;80;21294;-48
2022/10/31 10:06:53;;;;;;;0.40;0.10;;;;;;;;;;1781685;79;21046;-49
2022/10/31 10:09:33;;;;;;;0.47;0.10;;;;;;;;;;1716289;80;21876;-49
2022/10/31 10:12:27;;;;;;;1.52;0.10;;;;;;;;;;1717789;81;21108;-48
2022/10/31 10:15:30;;;;;;;0.15;0.10;;;;;;;;;;1714438;81;21667;-48
2022/10/31 10:18:04;;;;;;;0.80;0.10;;;;;;;;;;1754915;78;21048;-49
2022/10/31 10:20:50;;;;;;;0.20;0.10;;;;;;;;;;1777276;78;21064;-49
2022/10/31 10:23:31;;;;;;;0.33;0.00;;;;;;;;;;1772918;78;23754;-48
2022/10/31 10:26:06;;;;;;;0.10;0.10;;;;;;;;;;1773191;78;21051;-49
2022/10/31 10:28:38;;;;;;;0.28;0.10;;;;;;;;;;1774699;78;21662;-50
2022/10/31 10:31:10;;;;;;;0.30;0.10;;;;;;;;;;1774555;78;21480;-49
2022/10/31 10:34:04;;;;;;;1.15;0.10;;;;;;;;;;1770972;78;21042;-49
2022/10/31 10:36:37;;;;;;;2.12;0.10;;;;;;;;;;1730198;80;21948;-49
2022/10/31 10:39:19;;;;;;;2.17;0.20;;;;;;;;;;1704342;82;21097;-49
2022/10/31 10:43:18;;;;;;;1.95;0.10;;;;;;;;;;1701701;82;21053;-49
2022/10/31 10:44:15;;;;;;;1.12;0.10;;;;;;;;;;1773484;79;21681;-48
2022/10/31 10:49:37;;;;;;;0.13;0.10;;;;;;;;;;1764723;79;21932;-48
2022/10/31 10:52:22;;;;;;;0.00;0.00;;;;;;;;;;1767035;79;21142;-48
2022/10/31 10:54:55;;;;;;;;;;;;;;;;;;1764649;79;21284;-48
2022/10/31 10:57:34;;;;;;;0.10;0.10;;;;;;;;;;1766319;79;20212;-47
2022/10/31 11:00:03;;;;;;;0.20;0.10;;;;;;;;;;1774926;79;21018;-48
2022/10/31 11:02:32;;;;;;;0.47;0.10;;;;;;;;;;1764633;79;21829;-48
2022/10/31 11:04:59;;;;;;;0.30;0.10;;;;;;;;;;1768869;79;20962;-49
2022/10/31 11:07:28;;;;;;;0.15;0.00;;;;;;;;;;1769057;79;21044;-49
2022/10/31 11:09:58;;;;;;;0.10;0.10;;;;;;;;;;1766369;79;21060;-49
2022/10/31 11:12:29;;;;;;;0.50;0.05;;;;;;;;;;1768059;79;22001;-49
2022/10/31 11:15:00;;;;;;;0.33;0.10;;;;;;;;;;1768228;79;21933;-48
2022/10/31 11:17:39;;;;;;;0.33;0.00;;;;;;;;;;1774251;79;21004;-49
2022/10/31 11:20:15;;;;;;;0.23;0.10;;;;;;;;;;1772953;79;21002;-48
2022/10/31 11:22:45;;;;;;;0.60;0.05;;;;;;;;;;1771293;79;21015;-48
2022/10/31 11:25:25;;;;;;;0.82;0.10;;;;;;;;;;1768008;79;21069;-48
2022/10/31 11:28:05;;;;;;;0.30;0.00;;;;;;;;;;1774765;79;21761;-48
2022/10/31 11:30:44;;;;;;;0.20;0.10;;;;;;;;;;1770653;80;21055;-48
2022/10/31 11:33:19;;;;;;;1.07;0.20;;;;;;;;;;1768468;79;21048;-48
2022/10/31 11:35:47;;;;;;;0.00;0.00;;;;;;;;;;1769315;80;21157;-49
2022/10/31 11:38:18;;;;;;;1.55;0.10;;;;;;;;;;1769370;80;21046;-49
2022/10/31 11:40:56;;;;;;;1.00;0.10;;;;;;;;;;1769176;80;21894;-49
2022/10/31 11:43:22;;;;;;;0.15;0.10;;;;;;;;;;1739762;80;21059;-49
2022/10/31 11:45:48;;;;;;;1.17;0.10;;;;;;;;;;1773876;79;21050;-49
2022/10/31 11:48:17;;;;;;;0.30;0.10;;;;;;;;;;1774731;79;21746;-48
2022/10/31 11:50:52;;;;;;;0.30;0.10;;;;;;;;;;1772837;79;21079;-49
2022/10/31 11:53:23;;;;;;;;;;;;;;;;;;1769587;80;22514;-49
2022/10/31 11:56:08;;;;;;;2.47;0.10;;;;;;;;;;1735795;80;20245;-48
2022/10/31 11:58:34;;;;;;;0.25;0.10;;;;;;;;;;1716547;82;21053;-48
2022/10/31 12:01:01;;;;;;;0.10;0.10;;;;;;;;;;1710516;81;21704;-49
2022/10/31 12:03:48;;;;;;;1.47;0.10;;;;;;;;;;1706460;82;21063;-49
2022/10/31 12:06:18;;;;;;;0.30;0.10;;;;;;;;;;1738939;80;23616;-49
2022/10/31 12:08:46;;;;;;;0.20;0.08;;;;;;;;;;1736425;80;21089;-48
2022/10/31 12:11:19;;;;;;;0.17;0.03;;;;;;;;;;1706182;82;21025;-48
2022/10/31 12:14:19;;;;;;;0.20;0.10;;;;;;;;;;1712371;82;21080;-49
2022/10/31 12:17:06;;;;;;;0.10;0.10;;;;;;;;;;1702558;82;21510;-49
2022/10/31 12:19:55;;;;;;;0.13;0.10;;;;;;;;;;1713351;82;21897;-48
2022/10/31 12:22:28;;;;;;;0.30;0.10;;;;;;;;;;1704139;82;21475;-49
2022/10/31 12:25:14;;;;;;;0.20;0.10;;;;;;;;;;1734803;81;21056;-48
2022/10/31 12:27:54;;;;;;;0.20;0.10;;;;;;;;;;1731367;81;21305;-49
2022/10/31 12:30:23;;;;;;;0.50;0.10;;;;;;;;;;1679795;82;21065;-49
2022/10/31 12:33:10;;;;;;;0.30;0.20;;;;;;;;;;1731324;81;22440;-48
2022/10/31 12:35:49;;;;;;;0.53;0.20;;;;;;;;;;1734697;82;21079;-49
2022/10/31 12:38:34;;;;;;;4.92;0.10;;;;;;;;;;1738959;82;21637;-49
2022/10/31 12:41:06;;;;;;;0.20;0.10;;;;;;;;;;1730808;82;21047;-50
2022/10/31 12:43:42;;;;;;;0.35;0.10;;;;;;;;;;1736226;81;21036;-49
2022/10/31 12:46:12;;;;;;;0.90;0.13;;;;;;;;;;1728544;80;21828;-49
2022/10/31 12:49:02;;;;;;;0.25;0.10;;;;;;;;;;1765013;79;21035;-49
2022/10/31 12:51:41;;;;;;;0.60;0.20;;;;;;;;;;1766566;79;21149;-49
2022/10/31 12:54:14;;;;;;;0.30;0.15;;;;;;;;;;1771422;79;21595;-49
2022/10/31 12:56:56;;;;;;;0.25;0.13;;;;;;;;;;1747813;79;21040;-49
2022/10/31 12:59:38;;;;;;;0.15;0.10;;;;;;;;;;1771340;79;21776;-49
2022/10/31 13:02:23;;;;;;;0.30;0.10;;;;;;;;;;1771364;79;21374;-49
2022/10/31 13:05:07;;;;;;;0.47;0.13;;;;;;;;;;1769252;79;21063;-49
2022/10/31 13:07:38;;;;;;;0.30;0.20;;;;;;;;;;1767335;79;21433;-49
2022/10/31 13:10:14;;;;;;;0.30;0.17;;;;;;;;;;1770859;79;21033;-49
2022/10/31 13:12:40;;;;;;;0.50;0.20;;;;;;;;;;1767676;79;21926;-50
2022/10/31 13:15:22;;;;;;;0.20;0.20;;;;;;;;;;1770199;79;21256;-49
2022/10/31 13:17:58;;;;;;;0.68;0.23;;;;;;;;;;1771433;80;21043;-49
2022/10/31 13:20:30;;;;;;;2.77;0.20;;;;;;;;;;1769807;79;21590;-49
2022/10/31 13:23:07;;;;;;;0.40;0.10;;;;;;;;;;1761835;79;21324;-49
2022/10/31 13:25:38;;;;;;;0.30;0.20;;;;;;;;;;1767678;79;21833;-49
2022/10/31 13:28:25;;;;;;;0.45;0.10;;;;;;;;;;1765563;79;21086;-49
2022/10/31 13:30:51;;;;;;;0.30;0.15;;;;;;;;;;1677443;83;21302;-49
2022/10/31 13:33:37;;;;;;;0.72;0.20;;;;;;;;;;1763835;79;21092;-49
2022/10/31 13:36:23;;;;;;;;;;;;;;;;;;1773141;79;21039;-49
2022/10/31 13:38:53;;;;;;;0.30;0.10;;;;;;;;;;1765842;79;22036;-48
2022/10/31 13:41:30;;;;;;;0.35;0.20;;;;;;;;;;1766317;79;21329;-49
2022/10/31 13:44:00;;;;;;;0.85;0.20;;;;;;;;;;1769854;79;21813;-48
2022/10/31 13:46:36;;;;;;;0.65;0.10;;;;;;;;;;1771864;80;21098;-48
2022/10/31 13:49:02;;;;;;;0.40;0.20;;;;;;;;;;1769603;80;21499;-49
2022/10/31 13:51:30;;;;;;;3.00;0.20;;;;;;;;;;1774705;80;21801;-48
2022/10/31 13:56:31;;;;;;;1.13;0.20;;;;;;;;;;1859492;75;22548;-48
2022/10/31 13:59:05;;;;;;;0.47;0.30;;;;;;;;;;1832851;75;21297;-47
2022/10/31 14:01:32;;;;;;;1.20;0.20;;;;;;;;;;1841062;75;21767;-48
2022/10/31 14:04:03;;;;;;;0.45;0.30;;;;;;;;;;1841746;75;21073;-48
2022/10/31 14:06:38;;;;;;;1.72;0.50;;;;;;;;;;1848868;75;21434;-47
2022/10/31 14:11:18;;;;;;;1.77;0.50;;;;;;;;;;1794276;77;22610;-48
2022/10/31 14:13:46;;;;;;;0.80;0.40;;;;;;;;;;1773220;78;21484;-48
2022/10/31 14:16:33;;;;;;;1.52;0.40;;;;;;;;;;1781567;78;21918;-48
2022/10/31 14:19:08;;;;;;;1.40;0.40;;;;;;;;;;1775392;79;21034;-49
2022/10/31 14:21:43;;;;;;;1.35;0.60;;;;;;;;;;1776126;78;21078;-48
2022/10/31 14:24:24;;;;;;;3.33;0.30;;;;;;;;;;1770745;79;21147;-49
2022/10/31 14:29:31;;;;;;;1.50;0.40;;;;;;;;;;1871050;75;22729;-48
2022/10/31 14:32:14;;;;;;;1.35;0.40;;;;;;;;;;1848577;77;21504;-47
2022/10/31 14:34:53;;;;;;;0.88;0.50;;;;;;;;;;1843400;77;21939;-48
2022/10/31 14:37:33;;;;;;;1.45;0.40;;;;;;;;;;1789430;77;21033;-49
2022/10/31 14:40:18;;;;;;;0.70;0.40;;;;;;;;;;1839973;75;21543;-48
2022/10/31 14:43:12;;;;;;;1.45;0.45;;;;;;;;;;1834176;76;21083;-49
2022/10/31 14:45:54;;;;;;;1.37;0.50;;;;;;;;;;1837653;77;21178;-49
2022/10/31 14:48:59;;;;;;;2.20;0.70;;;;;;;;;;1845673;76;21828;-49
2022/10/31 14:51:28;;;;;;;3.00;0.80;;;;;;;;;;1813490;77;21449;-48
2022/10/31 14:53:55;;;;;;;2.62;0.62;;;;;;;;;;1844261;77;21524;-49
2022/10/31 14:56:27;;;;;;;2.15;0.68;;;;;;;;;;1845277;77;20994;-49
2022/10/31 14:58:55;;;;;;;5.30;0.98;;;;;;;;;;1813633;77;21111;-49
2022/10/31 15:01:23;;;;;;;1.32;0.75;;;;;;;;;;1807661;78;21938;-49
2022/10/31 15:03:50;;;;;;;2.08;0.70;;;;;;;;;;1768836;79;21053;-49
2022/10/31 15:06:18;;;;;;;1.17;0.60;;;;;;;;;;1737654;81;21053;-49
2022/10/31 15:08:48;;;;;;;3.15;0.60;;;;;;;;;;1756968;79;21085;-49
2022/10/31 15:11:19;;;;;;;1.52;0.50;;;;;;;;;;1737791;80;21051;-49
2022/10/31 15:13:51;;;;;;;1.00;0.50;;;;;;;;;;1740492;80;21896;-49
2022/10/31 15:16:34;;;;;;;2.12;0.80;;;;;;;;;;1739046;80;21096;-49
2022/10/31 15:19:06;;;;;;;1.70;0.82;;;;;;;;;;1742755;81;21490;-49
2022/10/31 15:21:33;;;;;;;2.08;0.80;;;;;;;;;;1737450;81;21523;-49
2022/10/31 15:24:01;;;;;;;2.20;1.10;;;;;;;;;;1742033;80;21063;-49
2022/10/31 15:26:34;;;;;;;3.10;1.20;;;;;;;;;;1750875;79;22960;-49
2022/10/31 15:29:05;;;;;;;4.08;1.42;;;;;;;;;;1745408;80;21026;-49
2022/10/31 15:31:31;;;;;;;2.72;1.37;;;;;;;;;;1743214;80;20986;-48
2022/10/31 15:34:01;;;;;;;2.95;1.20;;;;;;;;;;1739809;81;20986;-48
2022/10/31 15:36:27;;;;;;;2.77;1.40;;;;;;;;;;1741010;81;21017;-49
2022/10/31 15:38:56;;;;;;;3.65;1.30;;;;;;;;;;1732523;81;21962;-49
2022/10/31 15:41:48;;;;;;;4.85;1.82;;;;;;;;;;1747540;80;21983;-49
2022/10/31 15:44:16;;;;;;;3.67;1.35;;;;;;;;;;1754791;79;20968;-49
2022/10/31 15:46:43;;;;;;;3.58;1.60;;;;;;;;;;1730945;81;20984;-49
2022/10/31 15:49:31;;;;;;;4.28;1.32;;;;;;;;;;1734734;81;21440;-49
2022/10/31 15:51:59;;;;;;;4.33;1.22;;;;;;;;;;1743091;80;22499;-49
2022/10/31 15:54:25;;;;;;;4.92;1.42;;;;;;;;;;1744380;81;20990;-48
2022/10/31 15:56:52;;;;;;;3.27;1.30;;;;;;;;;;1752472;81;21010;-49
2022/10/31 15:59:20;;;;;;;5.00;0.90;;;;;;;;;;1749093;80;20990;-49
2022/10/31 16:02:01;;;;;;;6.90;0.98;;;;;;;;;;1767459;79;20956;-49
2022/10/31 16:04:27;;;;;;;2.17;1.07;;;;;;;;;;1741405;80;21868;-49
2022/10/31 16:07:01;;;;;;;3.37;1.00;;;;;;;;;;1751177;81;21073;-49
2022/10/31 16:09:27;;;;;;;1.98;1.30;;;;;;;;;;1743914;81;21728;-49
2022/10/31 16:11:54;;;;;;;4.00;1.50;;;;;;;;;;1804483;78;21403;-49
2022/10/31 16:14:23;;;;;;;9.60;1.50;;;;;;;;;;1796418;78;21087;-49
2022/10/31 16:16:52;;;;;;;6.78;1.50;;;;;;;;;;1799417;77;21797;-49
2022/10/31 16:19:25;;;;;;;3.13;1.20;;;;;;;;;;1797045;78;21066;-49
2022/10/31 16:21:54;;;;;;;7.03;1.87;;;;;;;;;;1793045;78;21085;-49
2022/10/31 16:24:26;;;;;;;6.33;1.40;;;;;;;;;;1793428;77;21068;-49
2022/10/31 16:26:54;;;;;;;4.75;1.72;;;;;;;;;;1801413;78;21527;-48
2022/10/31 16:29:25;;;;;;;4.63;1.63;;;;;;;;;;1801767;78;23399;-49
2022/10/31 16:31:52;;;;;;;4.20;1.63;;;;;;;;;;1801447;77;21294;-49
2022/10/31 16:34:20;;;;;;;6.17;1.93;;;;;;;;;;1795875;78;21039;-49
2022/10/31 16:36:48;;;;;;;3.07;1.27;;;;;;;;;;1793538;78;21545;-49
2022/10/31 16:39:14;;;;;;;6.67;2.00;;;;;;;;;;1799521;78;21382;-50
2022/10/31 16:41:41;;;;;;;3.17;1.50;;;;;;;;;;1804739;77;21897;-49
2022/10/31 16:44:19;;;;;;;5.80;1.47;;;;;;;;;;1795646;78;21038;-49
2022/10/31 16:46:46;;;;;;;3.73;1.60;;;;;;;;;;1775451;78;21212;-49
2022/10/31 16:49:12;;;;;;;3.67;1.50;;;;;;;;;;1797372;78;21520;-48
2022/10/31 16:51:38;;;;;;;3.20;1.60;;;;;;;;;;1798069;78;21021;-48
2022/10/31 16:54:04;;;;;;;5.63;1.80;;;;;;;;;;1799483;77;21806;-49
2022/10/31 16:56:33;;;;;;;4.50;1.70;;;;;;;;;;1796620;78;21366;-48
2022/10/31 16:59:00;;;;;;;3.63;1.53;;;;;;;;;;1799541;78;21117;-49
2022/10/31 17:01:27;;;;;;;5.43;1.60;;;;;;;;;;1793887;77;21343;-49
2022/10/31 17:03:53;;;;;;;3.90;1.80;;;;;;;;;;1796693;77;22250;-49